sensor_id;sensor_type;location;lat;lon;timestamp;P1;durP1;ratioP1;P2;durP2;ratioP2
84357;SDS011;74548;47.712;9.272;2024-03-08T00:02:11;16.48;;;8.05;;
84357;SDS011;74548;47.712;9.272;2024-03-08T00:04:38;13.02;;;7.32;;
84357;SDS011;74548;47.712;9.272;2024-03-08T00:09:19;14.52;;;7.88;;
84357;SDS011;74548;47.712;9.272;2024-03-08T00:11:46;14.48;;;7.72;;
84357;SDS011;74548;47.712;9.272;2024-03-08T00:14:11;13.00;;;6.90;;
84357;SDS011;74548;47.712;9.272;2024-03-08T00:16:37;10.70;;;7.20;;
84357;SDS011;74548;47.712;9.272;2024-03-08T00:19:02;14.07;;;7.77;;
84357;SDS011;74548;47.712;9.272;2024-03-08T00:21:27;15.23;;;7.57;;
84357;SDS011;74548;47.712;9.272;2024-03-08T00:23:53;15.73;;;7.13;;
84357;SDS011;74548;47.712;9.272;2024-03-08T00:26:20;14.27;;;7.43;;
84357;SDS011;74548;47.712;9.272;2024-03-08T00:28:47;12.52;;;6.88;;
84357;SDS011;74548;47.712;9.272;2024-03-08T00:31:13;15.40;;;7.97;;
84357;SDS011;74548;47.712;9.272;2024-03-08T00:33:39;14.50;;;7.55;;
84357;SDS011;74548;47.712;9.272;2024-03-08T00:36:04;12.38;;;6.82;;
84357;SDS011;74548;47.712;9.272;2024-03-08T00:38:30;12.77;;;6.68;;
84357;SDS011;74548;47.712;9.272;2024-03-08T00:40:56;12.80;;;7.32;;
84357;SDS011;74548;47.712;9.272;2024-03-08T00:43:22;13.55;;;7.30;;
84357;SDS011;74548;47.712;9.272;2024-03-08T00:45:47;13.00;;;7.83;;
84357;SDS011;74548;47.712;9.272;2024-03-08T00:48:12;15.07;;;7.30;;
84357;SDS011;74548;47.712;9.272;2024-03-08T00:53:05;11.32;;;7.35;;
84357;SDS011;74548;47.712;9.272;2024-03-08T00:55:31;11.82;;;6.95;;
84357;SDS011;74548;47.712;9.272;2024-03-08T00:57:56;13.35;;;7.55;;
84357;SDS011;74548;47.712;9.272;2024-03-08T01:00:22;13.57;;;7.20;;
84357;SDS011;74548;47.712;9.272;2024-03-08T01:02:47;11.18;;;7.47;;
84357;SDS011;74548;47.712;9.272;2024-03-08T01:05:12;13.43;;;6.85;;
84357;SDS011;74548;47.712;9.272;2024-03-08T01:07:38;15.68;;;8.15;;
84357;SDS011;74548;47.712;9.272;2024-03-08T01:10:04;12.00;;;6.55;;
84357;SDS011;74548;47.712;9.272;2024-03-08T01:12:34;13.80;;;7.05;;
84357;SDS011;74548;47.712;9.272;2024-03-08T01:14:59;12.45;;;7.38;;
84357;SDS011;74548;47.712;9.272;2024-03-08T01:17:25;14.20;;;7.10;;
84357;SDS011;74548;47.712;9.272;2024-03-08T01:19:51;11.88;;;6.15;;
84357;SDS011;74548;47.712;9.272;2024-03-08T01:22:16;13.97;;;7.07;;
84357;SDS011;74548;47.712;9.272;2024-03-08T01:24:41;14.23;;;7.20;;
84357;SDS011;74548;47.712;9.272;2024-03-08T01:27:06;12.23;;;7.07;;
84357;SDS011;74548;47.712;9.272;2024-03-08T01:29:34;11.75;;;7.07;;
84357;SDS011;74548;47.712;9.272;2024-03-08T01:31:59;16.30;;;7.90;;
84357;SDS011;74548;47.712;9.272;2024-03-08T01:34:26;11.52;;;7.40;;
84357;SDS011;74548;47.712;9.272;2024-03-08T01:36:53;15.82;;;6.88;;
84357;SDS011;74548;47.712;9.272;2024-03-08T01:39:20;10.82;;;6.40;;
84357;SDS011;74548;47.712;9.272;2024-03-08T01:41:47;14.00;;;7.30;;
84357;SDS011;74548;47.712;9.272;2024-03-08T01:44:12;12.38;;;6.57;;
84357;SDS011;74548;47.712;9.272;2024-03-08T01:46:42;11.43;;;6.05;;
84357;SDS011;74548;47.712;9.272;2024-03-08T01:49:09;15.20;;;7.32;;
84357;SDS011;74548;47.712;9.272;2024-03-08T01:51:36;11.60;;;6.30;;
84357;SDS011;74548;47.712;9.272;2024-03-08T01:54:03;12.20;;;7.00;;
84357;SDS011;74548;47.712;9.272;2024-03-08T01:56:29;13.80;;;7.53;;
84357;SDS011;74548;47.712;9.272;2024-03-08T01:58:57;14.52;;;6.90;;
84357;SDS011;74548;47.712;9.272;2024-03-08T02:01:23;13.15;;;6.97;;
84357;SDS011;74548;47.712;9.272;2024-03-08T02:03:49;14.48;;;6.93;;
84357;SDS011;74548;47.712;9.272;2024-03-08T02:06:14;11.52;;;6.53;;
84357;SDS011;74548;47.712;9.272;2024-03-08T02:08:44;12.52;;;7.15;;
84357;SDS011;74548;47.712;9.272;2024-03-08T02:11:10;12.63;;;6.38;;
84357;SDS011;74548;47.712;9.272;2024-03-08T02:13:36;11.75;;;5.90;;
84357;SDS011;74548;47.712;9.272;2024-03-08T02:16:01;12.23;;;6.60;;
84357;SDS011;74548;47.712;9.272;2024-03-08T02:18:30;11.20;;;5.93;;
84357;SDS011;74548;47.712;9.272;2024-03-08T02:20:59;16.10;;;6.65;;
84357;SDS011;74548;47.712;9.272;2024-03-08T02:23:26;15.07;;;7.50;;
84357;SDS011;74548;47.712;9.272;2024-03-08T02:25:52;11.60;;;6.35;;
84357;SDS011;74548;47.712;9.272;2024-03-08T02:28:18;10.68;;;5.75;;
84357;SDS011;74548;47.712;9.272;2024-03-08T02:30:44;11.27;;;6.47;;
84357;SDS011;74548;47.712;9.272;2024-03-08T02:33:13;12.10;;;6.53;;
84357;SDS011;74548;47.712;9.272;2024-03-08T02:35:43;11.13;;;7.00;;
84357;SDS011;74548;47.712;9.272;2024-03-08T02:38:12;10.90;;;6.57;;
84357;SDS011;74548;47.712;9.272;2024-03-08T02:40:41;11.55;;;6.20;;
84357;SDS011;74548;47.712;9.272;2024-03-08T02:43:08;13.48;;;7.43;;
84357;SDS011;74548;47.712;9.272;2024-03-08T02:45:34;12.55;;;6.45;;
84357;SDS011;74548;47.712;9.272;2024-03-08T02:48:00;12.75;;;7.20;;
84357;SDS011;74548;47.712;9.272;2024-03-08T02:50:25;11.35;;;6.07;;
84357;SDS011;74548;47.712;9.272;2024-03-08T02:52:51;12.25;;;6.93;;
84357;SDS011;74548;47.712;9.272;2024-03-08T02:55:16;13.18;;;6.68;;
84357;SDS011;74548;47.712;9.272;2024-03-08T02:57:42;11.97;;;6.27;;
84357;SDS011;74548;47.712;9.272;2024-03-08T03:00:12;12.05;;;7.22;;
84357;SDS011;74548;47.712;9.272;2024-03-08T03:02:38;11.15;;;6.90;;
84357;SDS011;74548;47.712;9.272;2024-03-08T03:05:04;13.35;;;6.80;;
84357;SDS011;74548;47.712;9.272;2024-03-08T03:07:34;13.90;;;7.45;;
84357;SDS011;74548;47.712;9.272;2024-03-08T03:09:59;12.73;;;7.55;;
84357;SDS011;74548;47.712;9.272;2024-03-08T03:12:26;11.30;;;6.75;;
84357;SDS011;74548;47.712;9.272;2024-03-08T03:17:21;11.10;;;5.53;;
84357;SDS011;74548;47.712;9.272;2024-03-08T03:19:49;13.48;;;7.38;;
84357;SDS011;74548;47.712;9.272;2024-03-08T03:22:16;10.07;;;6.55;;
84357;SDS011;74548;47.712;9.272;2024-03-08T03:24:42;11.32;;;7.15;;
84357;SDS011;74548;47.712;9.272;2024-03-08T03:27:07;11.52;;;5.90;;
84357;SDS011;74548;47.712;9.272;2024-03-08T03:29:42;10.90;;;7.07;;
84357;SDS011;74548;47.712;9.272;2024-03-08T03:32:13;9.73;;;5.72;;
84357;SDS011;74548;47.712;9.272;2024-03-08T03:34:42;12.43;;;6.40;;
84357;SDS011;74548;47.712;9.272;2024-03-08T03:37:09;10.63;;;6.35;;
84357;SDS011;74548;47.712;9.272;2024-03-08T03:39:37;10.88;;;5.82;;
84357;SDS011;74548;47.712;9.272;2024-03-08T03:42:13;9.45;;;5.47;;
84357;SDS011;74548;47.712;9.272;2024-03-08T03:44:43;13.15;;;6.68;;
84357;SDS011;74548;47.712;9.272;2024-03-08T03:47:10;11.82;;;6.85;;
84357;SDS011;74548;47.712;9.272;2024-03-08T03:49:35;11.20;;;6.63;;
84357;SDS011;74548;47.712;9.272;2024-03-08T03:52:01;11.60;;;6.07;;
84357;SDS011;74548;47.712;9.272;2024-03-08T03:54:26;9.88;;;5.82;;
84357;SDS011;74548;47.712;9.272;2024-03-08T03:56:51;10.20;;;6.00;;
84357;SDS011;74548;47.712;9.272;2024-03-08T03:59:18;11.15;;;5.70;;
84357;SDS011;74548;47.712;9.272;2024-03-08T04:01:44;11.63;;;6.07;;
84357;SDS011;74548;47.712;9.272;2024-03-08T04:04:09;11.13;;;6.15;;
84357;SDS011;74548;47.712;9.272;2024-03-08T04:06:35;11.35;;;6.45;;
84357;SDS011;74548;47.712;9.272;2024-03-08T04:09:00;11.80;;;6.55;;
84357;SDS011;74548;47.712;9.272;2024-03-08T04:11:25;10.87;;;6.40;;
84357;SDS011;74548;47.712;9.272;2024-03-08T04:13:51;8.90;;;5.40;;
84357;SDS011;74548;47.712;9.272;2024-03-08T04:16:17;11.07;;;6.85;;
84357;SDS011;74548;47.712;9.272;2024-03-08T04:18:43;10.82;;;6.63;;
84357;SDS011;74548;47.712;9.272;2024-03-08T04:21:09;11.60;;;5.75;;
84357;SDS011;74548;47.712;9.272;2024-03-08T04:23:34;10.23;;;6.05;;
84357;SDS011;74548;47.712;9.272;2024-03-08T04:26:01;11.75;;;6.15;;
84357;SDS011;74548;47.712;9.272;2024-03-08T04:28:28;10.88;;;5.97;;
84357;SDS011;74548;47.712;9.272;2024-03-08T04:30:53;11.25;;;6.53;;
84357;SDS011;74548;47.712;9.272;2024-03-08T04:33:19;10.52;;;5.40;;
84357;SDS011;74548;47.712;9.272;2024-03-08T04:35:46;13.98;;;6.32;;
84357;SDS011;74548;47.712;9.272;2024-03-08T04:38:12;11.35;;;6.28;;
84357;SDS011;74548;47.712;9.272;2024-03-08T04:40:37;13.55;;;6.63;;
84357;SDS011;74548;47.712;9.272;2024-03-08T04:43:03;11.70;;;6.00;;
84357;SDS011;74548;47.712;9.272;2024-03-08T04:45:29;12.10;;;6.53;;
84357;SDS011;74548;47.712;9.272;2024-03-08T04:47:54;12.15;;;6.95;;
84357;SDS011;74548;47.712;9.272;2024-03-08T04:50:19;13.70;;;6.72;;
84357;SDS011;74548;47.712;9.272;2024-03-08T04:52:45;12.07;;;5.80;;
84357;SDS011;74548;47.712;9.272;2024-03-08T04:55:11;14.23;;;6.45;;
84357;SDS011;74548;47.712;9.272;2024-03-08T04:57:37;14.55;;;6.53;;
84357;SDS011;74548;47.712;9.272;2024-03-08T05:00:02;12.30;;;6.78;;
84357;SDS011;74548;47.712;9.272;2024-03-08T05:02:32;11.13;;;6.07;;
84357;SDS011;74548;47.712;9.272;2024-03-08T05:04:58;13.07;;;6.40;;
84357;SDS011;74548;47.712;9.272;2024-03-08T05:07:23;14.27;;;6.53;;
84357;SDS011;74548;47.712;9.272;2024-03-08T05:09:49;11.48;;;7.03;;
84357;SDS011;74548;47.712;9.272;2024-03-08T05:12:17;11.57;;;6.80;;
84357;SDS011;74548;47.712;9.272;2024-03-08T05:14:44;10.60;;;5.85;;
84357;SDS011;74548;47.712;9.272;2024-03-08T05:17:11;13.45;;;6.55;;
84357;SDS011;74548;47.712;9.272;2024-03-08T05:19:37;11.35;;;5.93;;
84357;SDS011;74548;47.712;9.272;2024-03-08T05:24:24;12.32;;;7.50;;
84357;SDS011;74548;47.712;9.272;2024-03-08T05:26:50;11.00;;;6.22;;
84357;SDS011;74548;47.712;9.272;2024-03-08T05:29:15;11.67;;;6.13;;
84357;SDS011;74548;47.712;9.272;2024-03-08T05:31:50;9.93;;;5.50;;
84357;SDS011;74548;47.712;9.272;2024-03-08T05:34:19;9.23;;;4.80;;
84357;SDS011;74548;47.712;9.272;2024-03-08T05:36:46;12.70;;;5.57;;
84357;SDS011;74548;47.712;9.272;2024-03-08T05:39:12;12.90;;;6.30;;
84357;SDS011;74548;47.712;9.272;2024-03-08T05:41:38;10.65;;;5.38;;
84357;SDS011;74548;47.712;9.272;2024-03-08T05:44:05;10.75;;;5.55;;
84357;SDS011;74548;47.712;9.272;2024-03-08T05:46:31;12.13;;;5.65;;
84357;SDS011;74548;47.712;9.272;2024-03-08T05:48:56;11.07;;;6.15;;
84357;SDS011;74548;47.712;9.272;2024-03-08T05:51:23;12.48;;;6.38;;
84357;SDS011;74548;47.712;9.272;2024-03-08T05:53:51;12.82;;;6.88;;
84357;SDS011;74548;47.712;9.272;2024-03-08T05:56:18;9.00;;;5.50;;
84357;SDS011;74548;47.712;9.272;2024-03-08T05:58:43;13.07;;;6.15;;
84357;SDS011;74548;47.712;9.272;2024-03-08T06:01:09;11.73;;;5.68;;
84357;SDS011;74548;47.712;9.272;2024-03-08T06:03:37;10.43;;;6.40;;
84357;SDS011;74548;47.712;9.272;2024-03-08T06:06:09;11.05;;;6.22;;
84357;SDS011;74548;47.712;9.272;2024-03-08T06:08:35;10.97;;;5.50;;
84357;SDS011;74548;47.712;9.272;2024-03-08T06:11:00;11.27;;;6.05;;
84357;SDS011;74548;47.712;9.272;2024-03-08T06:13:27;10.23;;;5.82;;
84357;SDS011;74548;47.712;9.272;2024-03-08T06:15:52;8.97;;;5.43;;
84357;SDS011;74548;47.712;9.272;2024-03-08T06:20:33;12.55;;;5.72;;
84357;SDS011;74548;47.712;9.272;2024-03-08T06:22:58;9.55;;;6.10;;
84357;SDS011;74548;47.712;9.272;2024-03-08T06:25:24;9.80;;;5.88;;
84357;SDS011;74548;47.712;9.272;2024-03-08T06:27:50;11.50;;;5.63;;
84357;SDS011;74548;47.712;9.272;2024-03-08T06:32:46;19.02;;;9.48;;
84357;SDS011;74548;47.712;9.272;2024-03-08T06:35:11;17.40;;;8.57;;
84357;SDS011;74548;47.712;9.272;2024-03-08T06:37:37;16.45;;;7.80;;
84357;SDS011;74548;47.712;9.272;2024-03-08T06:42:15;18.13;;;7.82;;
84357;SDS011;74548;47.712;9.272;2024-03-08T06:44:41;14.73;;;7.07;;
84357;SDS011;74548;47.712;9.272;2024-03-08T06:47:13;14.43;;;7.65;;
84357;SDS011;74548;47.712;9.272;2024-03-08T06:49:40;14.45;;;7.30;;
84357;SDS011;74548;47.712;9.272;2024-03-08T06:52:06;17.83;;;7.35;;
84357;SDS011;74548;47.712;9.272;2024-03-08T06:54:33;12.80;;;6.32;;
84357;SDS011;74548;47.712;9.272;2024-03-08T06:57:00;13.63;;;7.53;;
84357;SDS011;74548;47.712;9.272;2024-03-08T06:59:28;19.35;;;9.07;;
84357;SDS011;74548;47.712;9.272;2024-03-08T07:01:54;18.15;;;8.85;;
84357;SDS011;74548;47.712;9.272;2024-03-08T07:04:19;17.48;;;8.65;;
84357;SDS011;74548;47.712;9.272;2024-03-08T07:06:46;19.92;;;9.20;;
84357;SDS011;74548;47.712;9.272;2024-03-08T07:09:15;20.45;;;9.43;;
84357;SDS011;74548;47.712;9.272;2024-03-08T07:11:42;23.35;;;10.30;;
84357;SDS011;74548;47.712;9.272;2024-03-08T07:16:34;23.35;;;10.13;;
84357;SDS011;74548;47.712;9.272;2024-03-08T07:19:00;20.17;;;9.30;;
84357;SDS011;74548;47.712;9.272;2024-03-08T07:21:26;18.17;;;9.38;;
84357;SDS011;74548;47.712;9.272;2024-03-08T07:23:52;19.20;;;9.27;;
84357;SDS011;74548;47.712;9.272;2024-03-08T07:28:47;15.52;;;8.10;;
84357;SDS011;74548;47.712;9.272;2024-03-08T07:31:13;19.17;;;8.82;;
84357;SDS011;74548;47.712;9.272;2024-03-08T07:33:50;14.65;;;7.90;;
84357;SDS011;74548;47.712;9.272;2024-03-08T07:36:15;19.98;;;8.73;;
84357;SDS011;74548;47.712;9.272;2024-03-08T07:38:41;15.52;;;7.43;;
84357;SDS011;74548;47.712;9.272;2024-03-08T07:41:06;16.10;;;8.27;;
84357;SDS011;74548;47.712;9.272;2024-03-08T07:43:31;16.02;;;7.55;;
84357;SDS011;74548;47.712;9.272;2024-03-08T07:45:57;15.60;;;7.63;;
84357;SDS011;74548;47.712;9.272;2024-03-08T07:48:23;14.15;;;7.43;;
84357;SDS011;74548;47.712;9.272;2024-03-08T07:50:48;16.83;;;8.00;;
84357;SDS011;74548;47.712;9.272;2024-03-08T07:53:15;16.75;;;7.82;;
84357;SDS011;74548;47.712;9.272;2024-03-08T07:55:40;12.82;;;6.90;;
84357;SDS011;74548;47.712;9.272;2024-03-08T07:58:07;13.75;;;7.35;;
84357;SDS011;74548;47.712;9.272;2024-03-08T08:02:46;14.13;;;6.75;;
84357;SDS011;74548;47.712;9.272;2024-03-08T08:05:14;11.38;;;6.13;;
84357;SDS011;74548;47.712;9.272;2024-03-08T08:07:40;12.15;;;6.07;;
84357;SDS011;74548;47.712;9.272;2024-03-08T08:10:08;16.27;;;6.38;;
84357;SDS011;74548;47.712;9.272;2024-03-08T08:12:40;13.65;;;6.15;;
84357;SDS011;74548;47.712;9.272;2024-03-08T08:15:07;15.13;;;7.32;;
84357;SDS011;74548;47.712;9.272;2024-03-08T08:17:32;18.73;;;6.85;;
84357;SDS011;74548;47.712;9.272;2024-03-08T08:19:59;15.15;;;7.20;;
84357;SDS011;74548;47.712;9.272;2024-03-08T08:22:25;13.50;;;7.13;;
84357;SDS011;74548;47.712;9.272;2024-03-08T08:24:50;14.68;;;6.88;;
84357;SDS011;74548;47.712;9.272;2024-03-08T08:27:17;13.35;;;6.68;;
84357;SDS011;74548;47.712;9.272;2024-03-08T08:29:42;13.93;;;7.22;;
84357;SDS011;74548;47.712;9.272;2024-03-08T08:34:35;12.38;;;6.43;;
84357;SDS011;74548;47.712;9.272;2024-03-08T08:37:01;14.18;;;6.82;;
84357;SDS011;74548;47.712;9.272;2024-03-08T08:41:56;14.48;;;7.03;;
84357;SDS011;74548;47.712;9.272;2024-03-08T08:44:21;13.23;;;6.00;;
84357;SDS011;74548;47.712;9.272;2024-03-08T08:46:46;12.40;;;6.33;;
84357;SDS011;74548;47.712;9.272;2024-03-08T08:53:24;11.57;;;6.88;;
84357;SDS011;74548;47.712;9.272;2024-03-08T08:55:50;13.17;;;6.53;;
84357;SDS011;74548;47.712;9.272;2024-03-08T08:58:17;11.48;;;6.40;;
84357;SDS011;74548;47.712;9.272;2024-03-08T09:00:43;11.20;;;5.85;;
84357;SDS011;74548;47.712;9.272;2024-03-08T09:03:09;12.20;;;6.20;;
84357;SDS011;74548;47.712;9.272;2024-03-08T09:05:37;17.52;;;8.35;;
84357;SDS011;74548;47.712;9.272;2024-03-08T09:08:02;13.57;;;7.00;;
84357;SDS011;74548;47.712;9.272;2024-03-08T09:10:28;24.00;;;11.60;;
84357;SDS011;74548;47.712;9.272;2024-03-08T09:12:54;24.63;;;10.50;;
84357;SDS011;74548;47.712;9.272;2024-03-08T09:15:19;20.95;;;9.40;;
84357;SDS011;74548;47.712;9.272;2024-03-08T09:17:45;20.73;;;9.40;;
84357;SDS011;74548;47.712;9.272;2024-03-08T09:20:12;20.73;;;9.77;;
84357;SDS011;74548;47.712;9.272;2024-03-08T09:25:00;19.70;;;8.48;;
84357;SDS011;74548;47.712;9.272;2024-03-08T09:27:26;17.73;;;8.98;;
84357;SDS011;74548;47.712;9.272;2024-03-08T09:29:52;17.83;;;8.55;;
84357;SDS011;74548;47.712;9.272;2024-03-08T09:32:17;18.90;;;8.97;;
84357;SDS011;74548;47.712;9.272;2024-03-08T09:34:43;18.23;;;8.30;;
84357;SDS011;74548;47.712;9.272;2024-03-08T09:37:08;14.35;;;7.47;;
84357;SDS011;74548;47.712;9.272;2024-03-08T09:39:34;13.80;;;7.55;;
84357;SDS011;74548;47.712;9.272;2024-03-08T09:41:59;15.63;;;7.95;;
84357;SDS011;74548;47.712;9.272;2024-03-08T09:44:25;16.58;;;7.38;;
84357;SDS011;74548;47.712;9.272;2024-03-08T09:46:53;15.93;;;7.50;;
84357;SDS011;74548;47.712;9.272;2024-03-08T09:49:19;13.95;;;7.28;;
84357;SDS011;74548;47.712;9.272;2024-03-08T09:51:45;14.95;;;7.72;;
84357;SDS011;74548;47.712;9.272;2024-03-08T09:54:12;15.27;;;7.57;;
84357;SDS011;74548;47.712;9.272;2024-03-08T10:01:18;14.60;;;7.07;;
84357;SDS011;74548;47.712;9.272;2024-03-08T10:03:43;12.18;;;6.65;;
84357;SDS011;74548;47.712;9.272;2024-03-08T10:06:08;12.60;;;6.10;;
84357;SDS011;74548;47.712;9.272;2024-03-08T10:08:35;13.98;;;6.95;;
84357;SDS011;74548;47.712;9.272;2024-03-08T10:11:01;16.75;;;6.60;;
84357;SDS011;74548;47.712;9.272;2024-03-08T10:13:26;16.45;;;7.63;;
84357;SDS011;74548;47.712;9.272;2024-03-08T10:15:53;12.52;;;6.65;;
84357;SDS011;74548;47.712;9.272;2024-03-08T10:18:19;13.50;;;6.35;;
84357;SDS011;74548;47.712;9.272;2024-03-08T10:20:44;13.02;;;6.82;;
84357;SDS011;74548;47.712;9.272;2024-03-08T10:23:09;11.97;;;6.07;;
84357;SDS011;74548;47.712;9.272;2024-03-08T10:25:35;14.10;;;7.18;;
84357;SDS011;74548;47.712;9.272;2024-03-08T10:28:03;12.02;;;6.18;;
84357;SDS011;74548;47.712;9.272;2024-03-08T10:30:29;11.63;;;6.30;;
84357;SDS011;74548;47.712;9.272;2024-03-08T10:32:55;11.35;;;5.75;;
84357;SDS011;74548;47.712;9.272;2024-03-08T10:35:21;11.73;;;5.35;;
84357;SDS011;74548;47.712;9.272;2024-03-08T10:37:48;10.90;;;5.32;;
84357;SDS011;74548;47.712;9.272;2024-03-08T10:40:25;13.25;;;6.38;;
84357;SDS011;74548;47.712;9.272;2024-03-08T10:42:52;12.90;;;5.72;;
84357;SDS011;74548;47.712;9.272;2024-03-08T10:47:50;10.80;;;5.57;;
84357;SDS011;74548;47.712;9.272;2024-03-08T10:50:26;9.95;;;4.63;;
84357;SDS011;74548;47.712;9.272;2024-03-08T10:55:24;11.95;;;7.00;;
84357;SDS011;74548;47.712;9.272;2024-03-08T10:57:51;12.02;;;5.82;;
84357;SDS011;74548;47.712;9.272;2024-03-08T11:00:17;10.95;;;5.85;;
84357;SDS011;74548;47.712;9.272;2024-03-08T11:02:51;11.60;;;5.80;;
84357;SDS011;74548;47.712;9.272;2024-03-08T11:05:35;9.60;;;5.28;;
84357;SDS011;74548;47.712;9.272;2024-03-08T11:08:24;8.63;;;4.75;;
84357;SDS011;74548;47.712;9.272;2024-03-08T11:10:49;12.57;;;5.53;;
84357;SDS011;74548;47.712;9.272;2024-03-08T11:16:13;8.88;;;4.78;;
84357;SDS011;74548;47.712;9.272;2024-03-08T11:19:04;9.43;;;4.97;;
84357;SDS011;74548;47.712;9.272;2024-03-08T11:21:35;8.95;;;4.85;;
84357;SDS011;74548;47.712;9.272;2024-03-08T11:24:12;9.98;;;5.05;;
84357;SDS011;74548;47.712;9.272;2024-03-08T11:26:38;9.70;;;4.57;;
84357;SDS011;74548;47.712;9.272;2024-03-08T11:32:06;10.90;;;5.05;;
84357;SDS011;74548;47.712;9.272;2024-03-08T11:34:36;9.52;;;4.95;;
84357;SDS011;74548;47.712;9.272;2024-03-08T11:37:05;10.18;;;4.63;;
84357;SDS011;74548;47.712;9.272;2024-03-08T11:39:38;8.55;;;3.80;;
84357;SDS011;74548;47.712;9.272;2024-03-08T11:42:05;10.43;;;4.90;;
84357;SDS011;74548;47.712;9.272;2024-03-08T11:44:30;12.20;;;5.25;;
84357;SDS011;74548;47.712;9.272;2024-03-08T11:46:56;12.38;;;5.18;;
84357;SDS011;74548;47.712;9.272;2024-03-08T11:49:22;9.50;;;5.45;;
84357;SDS011;74548;47.712;9.272;2024-03-08T11:51:50;10.15;;;4.47;;
84357;SDS011;74548;47.712;9.272;2024-03-08T11:54:17;8.35;;;4.07;;
84357;SDS011;74548;47.712;9.272;2024-03-08T11:56:43;9.68;;;4.75;;
84357;SDS011;74548;47.712;9.272;2024-03-08T11:59:12;9.55;;;4.93;;
84357;SDS011;74548;47.712;9.272;2024-03-08T12:01:38;9.48;;;5.22;;
84357;SDS011;74548;47.712;9.272;2024-03-08T12:04:04;8.63;;;4.80;;
84357;SDS011;74548;47.712;9.272;2024-03-08T12:06:37;13.10;;;5.57;;
84357;SDS011;74548;47.712;9.272;2024-03-08T12:09:08;9.15;;;4.40;;
84357;SDS011;74548;47.712;9.272;2024-03-08T12:11:35;14.95;;;7.35;;
84357;SDS011;74548;47.712;9.272;2024-03-08T12:14:01;23.63;;;10.07;;
84357;SDS011;74548;47.712;9.272;2024-03-08T12:16:26;23.73;;;10.80;;
84357;SDS011;74548;47.712;9.272;2024-03-08T12:18:52;23.73;;;11.23;;
84357;SDS011;74548;47.712;9.272;2024-03-08T12:21:18;26.30;;;12.73;;
84357;SDS011;74548;47.712;9.272;2024-03-08T12:23:53;28.45;;;11.48;;
84357;SDS011;74548;47.712;9.272;2024-03-08T12:26:28;26.27;;;11.23;;
84357;SDS011;74548;47.712;9.272;2024-03-08T12:28:53;25.10;;;12.15;;
84357;SDS011;74548;47.712;9.272;2024-03-08T12:31:39;27.10;;;12.32;;
84357;SDS011;74548;47.712;9.272;2024-03-08T12:34:04;27.10;;;11.45;;
84357;SDS011;74548;47.712;9.272;2024-03-08T12:36:30;28.10;;;12.32;;
84357;SDS011;74548;47.712;9.272;2024-03-08T12:38:55;28.73;;;11.50;;
84357;SDS011;74548;47.712;9.272;2024-03-08T12:41:21;24.35;;;11.60;;
84357;SDS011;74548;47.712;9.272;2024-03-08T12:43:47;25.67;;;11.65;;
84357;SDS011;74548;47.712;9.272;2024-03-08T12:46:16;22.30;;;10.10;;
84357;SDS011;74548;47.712;9.272;2024-03-08T12:48:42;25.20;;;12.00;;
84357;SDS011;74548;47.712;9.272;2024-03-08T12:51:12;25.27;;;11.35;;
84357;SDS011;74548;47.712;9.272;2024-03-08T12:53:41;28.10;;;12.15;;
84357;SDS011;74548;47.712;9.272;2024-03-08T12:56:11;23.45;;;10.85;;
84357;SDS011;74548;47.712;9.272;2024-03-08T12:58:37;25.77;;;12.38;;
84357;SDS011;74548;47.712;9.272;2024-03-08T13:01:04;22.90;;;12.02;;
84357;SDS011;74548;47.712;9.272;2024-03-08T13:03:35;26.48;;;12.68;;
84357;SDS011;74548;47.712;9.272;2024-03-08T13:06:04;25.10;;;11.55;;
84357;SDS011;74548;47.712;9.272;2024-03-08T13:08:36;20.92;;;10.35;;
84357;SDS011;74548;47.712;9.272;2024-03-08T13:11:05;22.38;;;9.48;;
84357;SDS011;74548;47.712;9.272;2024-03-08T13:13:32;24.00;;;10.75;;
84357;SDS011;74548;47.712;9.272;2024-03-08T13:16:00;21.50;;;9.52;;
84357;SDS011;74548;47.712;9.272;2024-03-08T13:18:26;22.52;;;10.23;;
84357;SDS011;74548;47.712;9.272;2024-03-08T13:20:53;25.25;;;12.13;;
84357;SDS011;74548;47.712;9.272;2024-03-08T13:23:19;25.20;;;11.70;;
84357;SDS011;74548;47.712;9.272;2024-03-08T13:25:45;24.27;;;11.45;;
84357;SDS011;74548;47.712;9.272;2024-03-08T13:28:13;24.63;;;10.75;;
84357;SDS011;74548;47.712;9.272;2024-03-08T13:30:39;20.77;;;9.57;;
84357;SDS011;74548;47.712;9.272;2024-03-08T13:33:04;24.38;;;10.93;;
84357;SDS011;74548;47.712;9.272;2024-03-08T13:35:32;24.25;;;11.32;;
84357;SDS011;74548;47.712;9.272;2024-03-08T13:37:59;24.02;;;11.40;;
84357;SDS011;74548;47.712;9.272;2024-03-08T13:45:12;25.98;;;11.52;;
84357;SDS011;74548;47.712;9.272;2024-03-08T13:47:39;23.88;;;11.98;;
84357;SDS011;74548;47.712;9.272;2024-03-08T13:50:08;25.92;;;11.40;;
84357;SDS011;74548;47.712;9.272;2024-03-08T13:52:39;27.58;;;12.07;;
84357;SDS011;74548;47.712;9.272;2024-03-08T13:55:05;27.08;;;12.27;;
84357;SDS011;74548;47.712;9.272;2024-03-08T13:57:32;23.90;;;11.18;;
84357;SDS011;74548;47.712;9.272;2024-03-08T13:59:59;23.13;;;11.68;;
84357;SDS011;74548;47.712;9.272;2024-03-08T14:02:25;22.67;;;10.52;;
84357;SDS011;74548;47.712;9.272;2024-03-08T14:04:56;29.30;;;12.35;;
84357;SDS011;74548;47.712;9.272;2024-03-08T14:07:22;22.65;;;11.13;;
84357;SDS011;74548;47.712;9.272;2024-03-08T14:09:49;27.58;;;11.23;;
84357;SDS011;74548;47.712;9.272;2024-03-08T14:12:18;25.55;;;12.07;;
84357;SDS011;74548;47.712;9.272;2024-03-08T14:14:45;25.50;;;12.25;;
84357;SDS011;74548;47.712;9.272;2024-03-08T14:17:10;25.10;;;11.23;;
84357;SDS011;74548;47.712;9.272;2024-03-08T14:19:42;26.67;;;11.40;;
84357;SDS011;74548;47.712;9.272;2024-03-08T14:22:08;26.20;;;11.95;;
84357;SDS011;74548;47.712;9.272;2024-03-08T14:24:36;21.75;;;10.98;;
84357;SDS011;74548;47.712;9.272;2024-03-08T14:27:02;27.75;;;11.90;;
84357;SDS011;74548;47.712;9.272;2024-03-08T14:29:29;24.85;;;11.00;;
84357;SDS011;74548;47.712;9.272;2024-03-08T14:31:58;26.23;;;11.65;;
84357;SDS011;74548;47.712;9.272;2024-03-08T14:34:27;26.92;;;12.13;;
84357;SDS011;74548;47.712;9.272;2024-03-08T14:36:57;24.98;;;11.60;;
84357;SDS011;74548;47.712;9.272;2024-03-08T14:39:23;22.80;;;11.88;;
84357;SDS011;74548;47.712;9.272;2024-03-08T14:41:54;22.98;;;10.85;;
84357;SDS011;74548;47.712;9.272;2024-03-08T14:44:23;20.15;;;10.57;;
84357;SDS011;74548;47.712;9.272;2024-03-08T14:46:54;21.42;;;10.07;;
84357;SDS011;74548;47.712;9.272;2024-03-08T14:49:22;22.70;;;10.50;;
84357;SDS011;74548;47.712;9.272;2024-03-08T14:51:48;21.92;;;11.15;;
84357;SDS011;74548;47.712;9.272;2024-03-08T14:54:14;22.02;;;12.10;;
84357;SDS011;74548;47.712;9.272;2024-03-08T14:56:40;24.67;;;9.98;;
84357;SDS011;74548;47.712;9.272;2024-03-08T14:59:06;22.15;;;10.77;;
84357;SDS011;74548;47.712;9.272;2024-03-08T15:01:34;20.75;;;10.35;;
84357;SDS011;74548;47.712;9.272;2024-03-08T15:04:01;22.65;;;10.85;;
84357;SDS011;74548;47.712;9.272;2024-03-08T15:06:37;23.55;;;11.73;;
84357;SDS011;74548;47.712;9.272;2024-03-08T15:09:03;26.55;;;11.68;;
84357;SDS011;74548;47.712;9.272;2024-03-08T15:11:38;23.73;;;10.93;;
84357;SDS011;74548;47.712;9.272;2024-03-08T15:14:08;23.10;;;11.32;;
84357;SDS011;74548;47.712;9.272;2024-03-08T15:16:39;20.77;;;9.68;;
84357;SDS011;74548;47.712;9.272;2024-03-08T15:19:06;24.10;;;11.32;;
84357;SDS011;74548;47.712;9.272;2024-03-08T15:21:35;19.52;;;10.70;;
84357;SDS011;74548;47.712;9.272;2024-03-08T15:24:03;20.95;;;10.48;;
84357;SDS011;74548;47.712;9.272;2024-03-08T15:26:29;20.10;;;9.85;;
84357;SDS011;74548;47.712;9.272;2024-03-08T15:28:57;18.58;;;8.88;;